Time;durP1;ratioP1;P1;durP2;ratioP2;P2;SDS_P1;SDS_P2;PMS_P1;PMS_P2;Temp;Humidity;BMP_temperature;BMP_pressure;BME280_temperature;BME280_humidity;BME280_pressure;Samples;Min_cycle;Max_cycle;Signal;HPM_P1;HPM_P2
2023/06/16 00:01:09;;;;;;;7.70;6.78;;;;;;;;;;4990531;28;20041;-73
2023/06/16 00:03:35;;;;;;;10.05;6.70;;;;;;;;;;4990451;28;20049;-73
2023/06/16 00:06:14;;;;;;;9.15;7.32;;;;;;;;;;4994181;28;20487;-73
2023/06/16 00:08:41;;;;;;;10.98;7.82;;;;;;;;;;4986940;28;20034;-72
2023/06/16 00:11:06;;;;;;;11.18;7.43;;;;;;;;;;4995970;28;20030;-71
2023/06/16 00:13:33;;;;;;;12.82;7.57;;;;;;;;;;4991752;28;20074;-73
2023/06/16 00:15:58;;;;;;;12.93;7.47;;;;;;;;;;4995550;28;20415;-72
2023/06/16 00:18:27;;;;;;;11.50;7.10;;;;;;;;;;4990598;28;20039;-74
2023/06/16 00:20:54;;;;;;;9.60;7.00;;;;;;;;;;4991401;28;20046;-73
2023/06/16 00:23:21;;;;;;;11.80;7.75;;;;;;;;;;4994961;28;20115;-72
2023/06/16 00:25:48;;;;;;;11.20;6.90;;;;;;;;;;4998458;28;20023;-71
2023/06/16 00:28:14;;;;;;;10.82;7.18;;;;;;;;;;4991848;28;20053;-73
2023/06/16 00:30:39;;;;;;;10.52;7.75;;;;;;;;;;4990551;28;20448;-72
2023/06/16 00:33:05;;;;;;;12.15;7.72;;;;;;;;;;4990820;28;20037;-73
2023/06/16 00:35:32;;;;;;;9.52;7.03;;;;;;;;;;4991168;28;20030;-71
2023/06/16 00:37:58;;;;;;;11.23;7.40;;;;;;;;;;4991286;28;20129;-73
2023/06/16 00:40:24;;;;;;;10.32;6.55;;;;;;;;;;4992988;28;20117;-73
2023/06/16 00:42:50;;;;;;;11.57;7.38;;;;;;;;;;4991526;28;20428;-74
2023/06/16 00:45:15;;;;;;;11.00;8.43;;;;;;;;;;4992121;28;20069;-73
2023/06/16 00:47:42;;;;;;;13.35;7.60;;;;;;;;;;4992537;28;20045;-74
2023/06/16 00:50:08;;;;;;;8.77;6.82;;;;;;;;;;4991770;28;20045;-73
2023/06/16 00:52:37;;;;;;;13.82;8.30;;;;;;;;;;4990145;28;20034;-73
2023/06/16 00:55:03;;;;;;;8.98;7.45;;;;;;;;;;4989493;28;20044;-72
2023/06/16 00:57:29;;;;;;;14.73;8.35;;;;;;;;;;4990007;28;20563;-73
2023/06/16 00:59:55;;;;;;;9.32;7.30;;;;;;;;;;4989906;28;20049;-72
2023/06/16 01:02:21;;;;;;;7.88;6.47;;;;;;;;;;4989882;28;20322;-73
2023/06/16 01:04:51;;;;;;;8.68;6.25;;;;;;;;;;4989489;28;20473;-73
2023/06/16 01:07:55;;;;;;;8.63;6.90;;;;;;;;;;4989609;28;20035;-72
2023/06/16 01:10:59;;;;;;;11.57;5.47;;;;;;;;;;4990302;28;20480;-72
2023/06/16 01:13:55;;;;;;;8.95;5.20;;;;;;;;;;4989553;28;20031;-72
2023/06/16 01:16:28;;;;;;;8.35;5.55;;;;;;;;;;4989552;28;20098;-72
2023/06/16 01:18:55;;;;;;;9.18;5.72;;;;;;;;;;4989789;28;20035;-73
2023/06/16 01:21:24;;;;;;;8.27;5.22;;;;;;;;;;4989718;28;20030;-72
2023/06/16 01:24:08;;;;;;;7.80;5.95;;;;;;;;;;4990428;28;20121;-72
2023/06/16 01:26:37;;;;;;;9.73;5.32;;;;;;;;;;4989670;28;20084;-72
2023/06/16 01:29:06;;;;;;;8.73;5.00;;;;;;;;;;4989505;28;20469;-72
2023/06/16 01:31:33;;;;;;;8.35;5.63;;;;;;;;;;4990890;28;20031;-72
2023/06/16 01:34:01;;;;;;;9.05;5.75;;;;;;;;;;4988834;28;20480;-73
2023/06/16 01:36:31;;;;;;;12.65;7.03;;;;;;;;;;4989073;28;20089;-72
2023/06/16 01:38:58;;;;;;;8.15;5.90;;;;;;;;;;4989203;28;20519;-72
2023/06/16 01:41:24;;;;;;;13.15;6.20;;;;;;;;;;4989388;28;20101;-73
2023/06/16 01:43:50;;;;;;;10.05;6.30;;;;;;;;;;4990372;28;20057;-72
2023/06/16 01:46:16;;;;;;;10.07;5.80;;;;;;;;;;4989403;28;20507;-73
2023/06/16 01:48:43;;;;;;;12.00;7.47;;;;;;;;;;4990439;28;20346;-72
2023/06/16 01:51:09;;;;;;;10.38;7.45;;;;;;;;;;4989218;28;20484;-72
2023/06/16 01:53:34;;;;;;;13.18;9.60;;;;;;;;;;4987990;28;20112;-72
2023/06/16 01:56:00;;;;;;;12.80;9.75;;;;;;;;;;4971692;28;20030;-73
2023/06/16 01:58:27;;;;;;;11.40;9.38;;;;;;;;;;4988843;28;20026;-73
2023/06/16 02:00:57;;;;;;;15.30;9.35;;;;;;;;;;4984757;28;20503;-72
2023/06/16 02:03:31;;;;;;;12.60;8.25;;;;;;;;;;4990709;28;20408;-73
2023/06/16 02:06:04;;;;;;;12.00;8.50;;;;;;;;;;4988990;28;20026;-72
2023/06/16 02:08:33;;;;;;;10.77;7.95;;;;;;;;;;4971077;28;20030;-73
2023/06/16 02:10:59;;;;;;;11.38;8.80;;;;;;;;;;4970904;28;20460;-72
2023/06/16 02:13:27;;;;;;;10.75;7.70;;;;;;;;;;4987953;28;20050;-72
2023/06/16 02:15:54;;;;;;;11.77;8.27;;;;;;;;;;4989724;28;20026;-72
2023/06/16 02:18:24;;;;;;;12.02;7.43;;;;;;;;;;4988568;28;20075;-72
2023/06/16 02:20:50;;;;;;;10.23;7.68;;;;;;;;;;4992357;28;20093;-72
2023/06/16 02:23:16;;;;;;;14.48;7.95;;;;;;;;;;4973197;28;20401;-72
2023/06/16 02:25:42;;;;;;;10.98;7.93;;;;;;;;;;4972749;28;20047;-72
2023/06/16 02:28:08;;;;;;;10.57;7.43;;;;;;;;;;4992685;28;20022;-72
2023/06/16 02:30:34;;;;;;;12.15;8.27;;;;;;;;;;4992567;28;20520;-72
2023/06/16 02:33:00;;;;;;;8.55;7.00;;;;;;;;;;4994006;28;20097;-72
2023/06/16 02:35:26;;;;;;;12.55;8.13;;;;;;;;;;4991821;28;20034;-72
2023/06/16 02:37:53;;;;;;;12.38;7.57;;;;;;;;;;4992119;28;20364;-72
2023/06/16 02:40:20;;;;;;;10.48;7.57;;;;;;;;;;4993626;28;20042;-73
2023/06/16 02:42:47;;;;;;;12.93;7.78;;;;;;;;;;4992856;28;20030;-74
2023/06/16 02:45:13;;;;;;;11.32;7.55;;;;;;;;;;4992259;28;20034;-73
2023/06/16 02:47:40;;;;;;;9.93;6.45;;;;;;;;;;4994988;28;20097;-73
2023/06/16 02:50:08;;;;;;;12.70;6.65;;;;;;;;;;4994430;28;20107;-73
2023/06/16 02:52:33;;;;;;;9.30;6.93;;;;;;;;;;4986584;28;20034;-73
2023/06/16 02:55:00;;;;;;;14.63;7.20;;;;;;;;;;4992640;28;20037;-72
2023/06/16 02:57:32;;;;;;;13.05;7.00;;;;;;;;;;4994253;28;20034;-73
2023/06/16 02:59:58;;;;;;;9.90;6.35;;;;;;;;;;4994422;28;20064;-72
2023/06/16 03:02:25;;;;;;;9.43;6.43;;;;;;;;;;4994179;28;20030;-73
2023/06/16 03:04:57;;;;;;;8.68;7.50;;;;;;;;;;4994201;28;20041;-73
2023/06/16 03:07:29;;;;;;;14.13;8.00;;;;;;;;;;4994212;28;20025;-73
2023/06/16 03:09:57;;;;;;;9.10;7.32;;;;;;;;;;4994222;28;20038;-73
2023/06/16 03:12:25;;;;;;;12.52;8.13;;;;;;;;;;4994149;28;20113;-72
2023/06/16 03:15:00;;;;;;;12.25;7.85;;;;;;;;;;4994091;28;20038;-72
2023/06/16 03:17:26;;;;;;;16.05;7.70;;;;;;;;;;4994127;28;20033;-73
2023/06/16 03:19:52;;;;;;;13.73;6.68;;;;;;;;;;4993225;28;20019;-73
2023/06/16 03:22:27;;;;;;;8.90;6.78;;;;;;;;;;4994021;28;20374;-72
2023/06/16 03:24:53;;;;;;;8.13;6.70;;;;;;;;;;4993557;28;20030;-73
2023/06/16 03:27:19;;;;;;;9.52;6.75;;;;;;;;;;4992643;28;20032;-73
2023/06/16 03:29:59;;;;;;;11.50;7.93;;;;;;;;;;4993893;28;20385;-73
2023/06/16 03:32:27;;;;;;;10.60;8.15;;;;;;;;;;4993197;28;20121;-73
2023/06/16 03:34:55;;;;;;;10.82;7.68;;;;;;;;;;4993922;28;20027;-73
2023/06/16 03:37:22;;;;;;;12.50;8.27;;;;;;;;;;4993787;28;20035;-73
2023/06/16 03:39:48;;;;;;;9.80;8.18;;;;;;;;;;4993808;28;20037;-72
2023/06/16 03:42:13;;;;;;;15.55;8.00;;;;;;;;;;4993627;28;20129;-72
2023/06/16 03:44:40;;;;;;;19.20;9.55;;;;;;;;;;4994784;28;20057;-73
2023/06/16 03:47:06;;;;;;;14.70;8.10;;;;;;;;;;4993731;28;20073;-73
2023/06/16 03:49:33;;;;;;;10.98;8.00;;;;;;;;;;4993387;28;20026;-73
2023/06/16 03:51:59;;;;;;;11.30;7.28;;;;;;;;;;4993183;28;20038;-73
2023/06/16 03:54:27;;;;;;;21.10;9.70;;;;;;;;;;4987142;28;20117;-74
2023/06/16 03:56:52;;;;;;;18.30;9.40;;;;;;;;;;4993261;28;20126;-73
2023/06/16 03:59:21;;;;;;;13.63;8.18;;;;;;;;;;4993206;28;20037;-74
2023/06/16 04:01:51;;;;;;;21.90;10.32;;;;;;;;;;4994918;28;20038;-72
2023/06/16 04:04:19;;;;;;;16.77;8.65;;;;;;;;;;4993302;28;20459;-72
2023/06/16 04:06:48;;;;;;;23.95;9.68;;;;;;;;;;4992979;28;20061;-73
2023/06/16 04:09:15;;;;;;;11.50;7.93;;;;;;;;;;4993104;28;20034;-73
2023/06/16 04:11:41;;;;;;;9.45;7.32;;;;;;;;;;4993209;28;20026;-73
2023/06/16 04:14:09;;;;;;;22.20;8.80;;;;;;;;;;4993162;28;20041;-72
2023/06/16 04:16:37;;;;;;;14.68;7.75;;;;;;;;;;4992863;28;20026;-74
2023/06/16 04:19:06;;;;;;;12.93;7.88;;;;;;;;;;4990675;28;20043;-72
2023/06/16 04:21:33;;;;;;;15.57;7.78;;;;;;;;;;4993065;28;20058;-72
2023/06/16 04:24:01;;;;;;;10.57;7.13;;;;;;;;;;4992973;28;20041;-73
2023/06/16 04:26:28;;;;;;;8.90;7.13;;;;;;;;;;4993125;28;20057;-73
2023/06/16 04:28:56;;;;;;;10.93;6.18;;;;;;;;;;4975229;28;20412;-72
2023/06/16 04:31:29;;;;;;;17.45;8.32;;;;;;;;;;4983874;28;20057;-72
2023/06/16 04:33:58;;;;;;;16.13;7.53;;;;;;;;;;4992089;28;20515;-72
2023/06/16 04:36:25;;;;;;;17.42;8.40;;;;;;;;;;4992401;28;20292;-73
2023/06/16 04:38:54;;;;;;;23.40;9.93;;;;;;;;;;4992305;28;20031;-73
2023/06/16 04:41:20;;;;;;;20.95;10.57;;;;;;;;;;4992273;28;20057;-72
2023/06/16 04:43:46;;;;;;;16.23;9.15;;;;;;;;;;4991743;28;20037;-72
2023/06/16 04:46:12;;;;;;;19.35;9.52;;;;;;;;;;4992991;28;20369;-73
2023/06/16 04:48:39;;;;;;;22.92;9.75;;;;;;;;;;4989466;28;20026;-73
2023/06/16 04:51:05;;;;;;;19.90;10.80;;;;;;;;;;4993358;28;20030;-72
2023/06/16 04:53:31;;;;;;;21.38;9.57;;;;;;;;;;4993789;28;20364;-73
2023/06/16 04:55:58;;;;;;;17.75;9.02;;;;;;;;;;4993279;28;20026;-73
2023/06/16 04:58:24;;;;;;;23.42;10.35;;;;;;;;;;4991998;28;20026;-72
2023/06/16 05:00:50;;;;;;;10.77;8.10;;;;;;;;;;4991948;28;20060;-73
2023/06/16 05:03:16;;;;;;;13.70;9.30;;;;;;;;;;4993197;28;20392;-72
2023/06/16 05:05:43;;;;;;;11.05;7.95;;;;;;;;;;4991502;28;20030;-73
2023/06/16 05:08:09;;;;;;;12.25;7.90;;;;;;;;;;4993253;28;20038;-74
2023/06/16 05:10:35;;;;;;;12.57;7.68;;;;;;;;;;4991827;28;20031;-72
2023/06/16 05:13:01;;;;;;;14.50;7.40;;;;;;;;;;4991703;28;20026;-73
2023/06/16 05:15:27;;;;;;;14.85;8.30;;;;;;;;;;5008146;28;20404;-72
2023/06/16 05:17:53;;;;;;;13.00;7.30;;;;;;;;;;4995069;28;20459;-75
2023/06/16 05:20:19;;;;;;;13.60;8.10;;;;;;;;;;5012630;28;20037;-73
2023/06/16 05:22:45;;;;;;;15.35;8.45;;;;;;;;;;4994942;28;20133;-74
2023/06/16 05:25:11;;;;;;;13.18;7.93;;;;;;;;;;4991647;28;20026;-72
2023/06/16 05:27:37;;;;;;;26.10;9.60;;;;;;;;;;4992182;28;20489;-74
2023/06/16 05:30:03;;;;;;;15.32;7.97;;;;;;;;;;4990687;28;20034;-73
2023/06/16 05:32:30;;;;;;;11.43;7.00;;;;;;;;;;4988406;28;20029;-72
2023/06/16 05:34:56;;;;;;;9.75;7.47;;;;;;;;;;4989493;28;20389;-72
2023/06/16 05:37:22;;;;;;;8.57;6.60;;;;;;;;;;4989979;28;20035;-72
2023/06/16 05:39:51;;;;;;;15.85;7.32;;;;;;;;;;4989944;28;20046;-72
2023/06/16 05:42:17;;;;;;;12.65;8.20;;;;;;;;;;4990467;28;20421;-72
2023/06/16 05:44:45;;;;;;;14.55;7.93;;;;;;;;;;4990344;28;20033;-70
2023/06/16 05:47:13;;;;;;;11.02;7.85;;;;;;;;;;4974837;28;20030;-74
2023/06/16 05:49:40;;;;;;;24.30;9.07;;;;;;;;;;4990964;28;20030;-72
2023/06/16 05:52:06;;;;;;;14.23;7.97;;;;;;;;;;4974627;28;20062;-72
2023/06/16 05:54:36;;;;;;;15.82;9.68;;;;;;;;;;4988028;28;20064;-73
2023/06/16 05:57:06;;;;;;;11.95;7.35;;;;;;;;;;4989121;28;20048;-74
2023/06/16 05:59:35;;;;;;;13.90;7.50;;;;;;;;;;4979472;28;20779;-74
2023/06/16 06:02:00;;;;;;;14.55;7.57;;;;;;;;;;4981180;28;20034;-73
2023/06/16 06:04:30;;;;;;;12.02;7.22;;;;;;;;;;4980881;28;20033;-74
2023/06/16 06:07:00;;;;;;;17.00;8.70;;;;;;;;;;4991422;28;20022;-72
2023/06/16 06:09:27;;;;;;;9.15;7.05;;;;;;;;;;4986078;28;20484;-72
2023/06/16 06:11:54;;;;;;;15.90;7.88;;;;;;;;;;4972212;28;20129;-72
2023/06/16 06:14:22;;;;;;;10.82;6.18;;;;;;;;;;4989247;28;20060;-72
2023/06/16 06:16:49;;;;;;;10.30;5.97;;;;;;;;;;4989060;28;20030;-73
2023/06/16 06:19:15;;;;;;;10.82;6.40;;;;;;;;;;4988169;28;20436;-74
2023/06/16 06:21:42;;;;;;;7.60;5.53;;;;;;;;;;4989967;28;20023;-74
2023/06/16 06:24:08;;;;;;;8.98;5.32;;;;;;;;;;4988129;28;20046;-73
2023/06/16 06:26:38;;;;;;;12.90;7.05;;;;;;;;;;4989685;28;20034;-74
2023/06/16 06:29:05;;;;;;;7.90;6.30;;;;;;;;;;4972211;28;20057;-74
2023/06/16 06:31:32;;;;;;;7.90;4.97;;;;;;;;;;4988791;28;20037;-77
2023/06/16 06:33:58;;;;;;;11.73;5.97;;;;;;;;;;4989014;28;20030;-74
2023/06/16 06:36:29;;;;;;;18.08;5.80;;;;;;;;;;4988866;28;20388;-75
2023/06/16 06:38:57;;;;;;;10.98;4.80;;;;;;;;;;4987372;28;20057;-74
2023/06/16 06:41:23;;;;;;;9.52;4.95;;;;;;;;;;4986985;28;20022;-74
2023/06/16 06:43:54;;;;;;;12.82;5.60;;;;;;;;;;4987562;28;20058;-75
2023/06/16 06:46:40;;;;;;;6.45;4.80;;;;;;;;;;4986931;28;20046;-75
2023/06/16 06:49:07;;;;;;;7.03;4.90;;;;;;;;;;4989069;28;20060;-73
2023/06/16 06:51:33;;;;;;;11.93;5.13;;;;;;;;;;4973124;28;20034;-74
2023/06/16 06:53:59;;;;;;;9.50;5.32;;;;;;;;;;4991653;28;20045;-74
2023/06/16 06:56:25;;;;;;;7.22;4.30;;;;;;;;;;4988349;28;20133;-74
2023/06/16 06:58:51;;;;;;;8.27;5.05;;;;;;;;;;4989256;28;20034;-74
2023/06/16 07:01:17;;;;;;;8.68;5.70;;;;;;;;;;4989810;28;20454;-73
2023/06/16 07:03:45;;;;;;;14.32;5.70;;;;;;;;;;4986475;28;20081;-72
2023/06/16 07:06:11;;;;;;;8.43;5.60;;;;;;;;;;4992241;28;20057;-73
2023/06/16 07:08:38;;;;;;;9.88;5.22;;;;;;;;;;4995132;28;20053;-73
2023/06/16 07:11:03;;;;;;;9.93;6.20;;;;;;;;;;4994929;28;20053;-74
2023/06/16 07:13:29;;;;;;;11.88;5.20;;;;;;;;;;4994408;28;20042;-73
2023/06/16 07:15:55;;;;;;;8.02;5.10;;;;;;;;;;4993574;28;20061;-74
2023/06/16 07:18:21;;;;;;;8.27;4.97;;;;;;;;;;4993340;28;20572;-73
2023/06/16 07:20:47;;;;;;;7.93;5.15;;;;;;;;;;4994821;28;20507;-74
2023/06/16 07:23:12;;;;;;;7.30;4.25;;;;;;;;;;4993876;28;20038;-75
2023/06/16 07:25:38;;;;;;;6.35;4.82;;;;;;;;;;4994785;28;20481;-75
2023/06/16 07:28:05;;;;;;;9.20;4.70;;;;;;;;;;4989798;28;20173;-74
2023/06/16 07:30:31;;;;;;;7.28;4.75;;;;;;;;;;4991064;28;20026;-74
2023/06/16 07:32:57;;;;;;;8.07;4.32;;;;;;;;;;4994276;28;20060;-74
2023/06/16 07:35:23;;;;;;;8.02;4.50;;;;;;;;;;4994853;28;20049;-73
2023/06/16 07:37:49;;;;;;;6.70;5.07;;;;;;;;;;4993197;28;20043;-73
2023/06/16 07:40:15;;;;;;;8.75;4.70;;;;;;;;;;4993087;28;20018;-73
2023/06/16 07:42:45;;;;;;;8.55;4.18;;;;;;;;;;4994149;28;20496;-74
2023/06/16 07:45:12;;;;;;;8.10;4.90;;;;;;;;;;4994036;28;20042;-73
2023/06/16 07:47:41;;;;;;;6.47;4.50;;;;;;;;;;4993128;28;20033;-73
2023/06/16 07:50:08;;;;;;;6.85;4.22;;;;;;;;;;4994179;28;20444;-73
2023/06/16 07:52:34;;;;;;;7.95;4.57;;;;;;;;;;4993754;28;20085;-72
2023/06/16 07:54:59;;;;;;;6.50;4.32;;;;;;;;;;4992758;28;20038;-72
2023/06/16 07:57:25;;;;;;;5.18;4.20;;;;;;;;;;4994212;28;20441;-73
2023/06/16 07:59:51;;;;;;;6.90;4.55;;;;;;;;;;4994120;28;20065;-73
2023/06/16 08:02:16;;;;;;;5.90;4.55;;;;;;;;;;4994307;28;20157;-74
2023/06/16 08:04:43;;;;;;;7.47;4.25;;;;;;;;;;4994081;28;20069;-74
2023/06/16 08:07:09;;;;;;;6.85;4.40;;;;;;;;;;4994405;28;20047;-74
2023/06/16 08:09:35;;;;;;;8.18;4.60;;;;;;;;;;4994434;28;20137;-72
2023/06/16 08:12:01;;;;;;;7.00;4.47;;;;;;;;;;4976980;28;20030;-74
2023/06/16 08:14:30;;;;;;;8.85;4.68;;;;;;;;;;4992465;28;20196;-74
2023/06/16 08:16:56;;;;;;;7.47;4.35;;;;;;;;;;4993099;28;20058;-73
2023/06/16 08:19:22;;;;;;;6.22;4.30;;;;;;;;;;4994233;28;20512;-74
2023/06/16 08:21:47;;;;;;;9.82;4.47;;;;;;;;;;4993515;28;20058;-73
2023/06/16 08:24:13;;;;;;;5.10;3.95;;;;;;;;;;4992360;28;20049;-75
2023/06/16 08:26:39;;;;;;;9.20;4.40;;;;;;;;;;4993688;28;20058;-73
2023/06/16 08:29:05;;;;;;;6.97;4.35;;;;;;;;;;4993611;28;20145;-74
2023/06/16 08:31:32;;;;;;;7.10;4.57;;;;;;;;;;4993221;28;20033;-74
2023/06/16 08:33:59;;;;;;;6.97;4.80;;;;;;;;;;4985492;28;20037;-73
2023/06/16 08:36:25;;;;;;;8.57;5.15;;;;;;;;;;4992398;28;20027;-73
2023/06/16 08:38:52;;;;;;;9.93;4.25;;;;;;;;;;4990978;28;20034;-74
2023/06/16 08:41:18;;;;;;;6.90;4.50;;;;;;;;;;4990851;28;20152;-76
2023/06/16 08:43:49;;;;;;;6.75;3.30;;;;;;;;;;4991218;28;20054;-73
2023/06/16 08:46:15;;;;;;;8.38;3.97;;;;;;;;;;4990067;28;20484;-74
2023/06/16 08:48:41;;;;;;;7.88;4.22;;;;;;;;;;4992928;28;20025;-75
2023/06/16 08:51:14;;;;;;;5.43;3.20;;;;;;;;;;4990610;28;20125;-76
2023/06/16 08:53:44;;;;;;;5.60;4.10;;;;;;;;;;4991442;28;20046;-74
2023/06/16 08:56:12;;;;;;;7.35;4.32;;;;;;;;;;4990844;28;20042;-77
2023/06/16 08:58:40;;;;;;;7.40;3.45;;;;;;;;;;4992712;28;20040;-74
2023/06/16 09:01:07;;;;;;;7.20;3.28;;;;;;;;;;4989771;28;20108;-75
2023/06/16 09:03:33;;;;;;;8.90;4.03;;;;;;;;;;4989059;28;20053;-75
2023/06/16 09:06:00;;;;;;;5.82;3.28;;;;;;;;;;4989010;28;20046;-74
2023/06/16 09:08:27;;;;;;;7.90;3.30;;;;;;;;;;4988511;28;20026;-75
2023/06/16 09:10:55;;;;;;;6.72;3.10;;;;;;;;;;5003302;28;20038;-76
2023/06/16 09:13:28;;;;;;;5.32;3.47;;;;;;;;;;5005218;28;20034;-76
2023/06/16 09:15:57;;;;;;;;;;;;;;;;;;4989771;28;20126;-76
2023/06/16 09:18:24;;;;;;;6.05;3.40;;;;;;;;;;4989568;28;19918;-76
2023/06/16 09:20:53;;;;;;;4.45;2.97;;;;;;;;;;4992650;28;20034;-76
2023/06/16 09:23:31;;;;;;;9.38;3.80;;;;;;;;;;4973257;28;20080;-76
2023/06/16 09:25:57;;;;;;;5.03;3.20;;;;;;;;;;4991462;28;20049;-76
2023/06/16 09:28:36;;;;;;;3.90;2.83;;;;;;;;;;4990711;28;20018;-76
2023/06/16 09:31:04;;;;;;;4.50;3.10;;;;;;;;;;4992346;28;20077;-76
2023/06/16 09:33:31;;;;;;;5.30;3.35;;;;;;;;;;4988768;28;20030;-76
2023/06/16 09:35:58;;;;;;;4.40;2.67;;;;;;;;;;4991195;28;20030;-76
2023/06/16 09:38:26;;;;;;;7.05;2.55;;;;;;;;;;4991428;28;20141;-75
2023/06/16 09:40:52;;;;;;;4.80;2.83;;;;;;;;;;4993168;28;20097;-76
2023/06/16 09:43:18;;;;;;;10.20;2.60;;;;;;;;;;4992561;28;20444;-75
2023/06/16 09:45:45;;;;;;;6.30;2.50;;;;;;;;;;4990309;28;20108;-74
2023/06/16 09:48:12;;;;;;;3.90;2.20;;;;;;;;;;4991947;28;20030;-76
2023/06/16 09:50:40;;;;;;;3.13;2.22;;;;;;;;;;4991159;28;20100;-76
2023/06/16 09:53:07;;;;;;;5.07;2.10;;;;;;;;;;4992382;28;20038;-76
2023/06/16 09:55:37;;;;;;;4.22;2.50;;;;;;;;;;5002555;28;20041;-76
2023/06/16 09:58:03;;;;;;;3.33;2.17;;;;;;;;;;4993418;28;20061;-76
2023/06/16 10:00:30;;;;;;;4.63;2.33;;;;;;;;;;4998023;28;20117;-76
2023/06/16 10:02:57;;;;;;;2.35;1.92;;;;;;;;;;4997628;28;20777;-74
2023/06/16 10:05:25;;;;;;;4.07;2.15;;;;;;;;;;4992307;28;20018;-76
2023/06/16 10:07:58;;;;;;;4.22;1.92;;;;;;;;;;4994447;28;20030;-74
2023/06/16 10:10:27;;;;;;;6.32;2.38;;;;;;;;;;4988032;28;20038;-76
2023/06/16 10:12:56;;;;;;;5.40;2.60;;;;;;;;;;4992388;28;20026;-75
2023/06/16 10:15:27;;;;;;;5.25;2.58;;;;;;;;;;4989649;28;20059;-75
2023/06/16 10:18:05;;;;;;;6.60;3.30;;;;;;;;;;4992106;28;20038;-76
2023/06/16 10:20:37;;;;;;;3.75;2.78;;;;;;;;;;4992397;28;20041;-75
2023/06/16 10:23:04;;;;;;;4.82;2.85;;;;;;;;;;4992083;28;20035;-77
2023/06/16 10:25:30;;;;;;;5.72;3.05;;;;;;;;;;4991862;28;20034;-75
2023/06/16 10:27:57;;;;;;;6.10;3.63;;;;;;;;;;4992285;28;20121;-76
2023/06/16 10:30:24;;;;;;;6.35;3.70;;;;;;;;;;4990385;28;20033;-78
2023/06/16 10:32:56;;;;;;;8.80;4.03;;;;;;;;;;4990938;28;20046;-76
2023/06/16 10:35:24;;;;;;;4.47;3.17;;;;;;;;;;4990584;28;20503;-75
2023/06/16 10:37:51;;;;;;;6.13;3.30;;;;;;;;;;4991583;28;20156;-76
2023/06/16 10:40:19;;;;;;;4.90;3.47;;;;;;;;;;4991411;28;20042;-75
2023/06/16 10:42:46;;;;;;;8.82;5.43;;;;;;;;;;4996130;28;20026;-76
2023/06/16 10:45:39;;;;;;;6.93;4.32;;;;;;;;;;4994870;28;20499;-76
2023/06/16 10:48:11;;;;;;;5.45;4.70;;;;;;;;;;4993939;28;20473;-75
2023/06/16 10:54:44;;;;;;;7.57;4.70;;;;;;;;;;4994851;28;20036;-78
2023/06/16 10:57:11;;;;;;;7.00;5.55;;;;;;;;;;4994952;28;20042;-76
2023/06/16 10:59:55;;;;;;;5.15;3.92;;;;;;;;;;5001070;28;20029;-77
2023/06/16 11:02:23;;;;;;;7.85;5.68;;;;;;;;;;4984707;28;20046;-77
2023/06/16 11:05:07;;;;;;;9.25;5.85;;;;;;;;;;4986656;28;20216;-75
2023/06/16 11:07:57;;;;;;;8.50;5.35;;;;;;;;;;4986313;28;20491;-77
2023/06/16 11:10:24;;;;;;;6.50;5.22;;;;;;;;;;4989045;28;20046;-76
2023/06/16 11:12:52;;;;;;;6.05;4.97;;;;;;;;;;4981187;28;20430;-75
2023/06/16 11:15:23;;;;;;;8.93;5.25;;;;;;;;;;5003749;28;20107;-76
2023/06/16 11:17:49;;;;;;;6.95;5.00;;;;;;;;;;4995781;28;20037;-76
2023/06/16 11:20:15;;;;;;;6.40;5.03;;;;;;;;;;4978258;28;20022;-76
2023/06/16 11:22:43;;;;;;;11.80;8.13;;;;;;;;;;4993354;28;20045;-75
2023/06/16 11:25:09;;;;;;;6.70;4.25;;;;;;;;;;4994069;28;20234;-76
2023/06/16 11:27:37;;;;;;;4.65;3.22;;;;;;;;;;5001320;28;20037;-75
2023/06/16 11:30:05;;;;;;;5.72;3.40;;;;;;;;;;5004356;28;20045;-75
2023/06/16 11:32:34;;;;;;;6.63;4.20;;;;;;;;;;5006297;28;20048;-74
2023/06/16 11:35:02;;;;;;;6.15;4.53;;;;;;;;;;5004485;28;20057;-77
2023/06/16 11:37:41;;;;;;;7.35;4.88;;;;;;;;;;5002462;28;20033;-74
2023/06/16 11:40:08;;;;;;;6.03;4.88;;;;;;;;;;5004885;28;20048;-77
2023/06/16 11:42:34;;;;;;;6.00;4.45;;;;;;;;;;5005388;28;20017;-77
2023/06/16 11:45:01;;;;;;;7.20;4.50;;;;;;;;;;4996707;28;20050;-72
2023/06/16 11:47:29;;;;;;;6.45;4.75;;;;;;;;;;5008340;28;20077;-76
2023/06/16 11:49:55;;;;;;;7.15;4.45;;;;;;;;;;4987959;28;20041;-73
2023/06/16 11:52:22;;;;;;;6.85;5.20;;;;;;;;;;4997182;28;20029;-72
2023/06/16 11:54:48;;;;;;;10.02;7.43;;;;;;;;;;5012918;28;20042;-75
2023/06/16 11:57:15;;;;;;;12.23;6.55;;;;;;;;;;5006109;28;20455;-73
2023/06/16 11:59:41;;;;;;;10.40;6.13;;;;;;;;;;5007196;28;20030;-74
2023/06/16 12:02:08;;;;;;;8.57;5.65;;;;;;;;;;5003328;28;20473;-73
2023/06/16 12:04:35;;;;;;;10.13;4.80;;;;;;;;;;5000166;28;20045;-73
2023/06/16 12:07:02;;;;;;;4.95;3.95;;;;;;;;;;4976550;28;20034;-75
2023/06/16 12:09:38;;;;;;;6.65;3.92;;;;;;;;;;4994978;28;20054;-73
2023/06/16 12:12:05;;;;;;;5.53;3.60;;;;;;;;;;4994258;28;20349;-74
2023/06/16 12:14:35;;;;;;;6.00;3.50;;;;;;;;;;4994390;28;20072;-73
2023/06/16 12:17:01;;;;;;;8.52;3.67;;;;;;;;;;4994196;28;20136;-74
2023/06/16 12:19:27;;;;;;;7.90;3.92;;;;;;;;;;4994570;28;20049;-75
2023/06/16 12:22:00;;;;;;;13.40;3.70;;;;;;;;;;4995359;28;20345;-74
2023/06/16 12:24:27;;;;;;;6.95;3.47;;;;;;;;;;5005896;28;20030;-73
2023/06/16 12:26:54;;;;;;;12.90;3.70;;;;;;;;;;5011753;28;20468;-73
2023/06/16 12:29:25;;;;;;;6.70;3.45;;;;;;;;;;4995791;28;20120;-75
2023/06/16 12:31:52;;;;;;;7.47;4.20;;;;;;;;;;4993514;28;20492;-73
2023/06/16 12:34:25;;;;;;;6.97;3.63;;;;;;;;;;4992577;28;20041;-74
2023/06/16 12:36:54;;;;;;;14.02;3.75;;;;;;;;;;4993699;28;20049;-74
2023/06/16 12:39:21;;;;;;;5.60;3.40;;;;;;;;;;4993794;28;20037;-76
2023/06/16 12:42:08;;;;;;;8.27;4.00;;;;;;;;;;4997085;28;20085;-75
2023/06/16 12:44:50;;;;;;;6.10;4.03;;;;;;;;;;4980150;28;20061;-73
2023/06/16 12:47:21;;;;;;;8.63;4.38;;;;;;;;;;4984423;28;20022;-74
2023/06/16 12:49:47;;;;;;;11.98;4.75;;;;;;;;;;4991976;28;20566;-73
2023/06/16 12:52:14;;;;;;;6.55;4.28;;;;;;;;;;4993332;28;20022;-76
2023/06/16 12:54:40;;;;;;;5.82;3.45;;;;;;;;;;4993573;28;20554;-78
2023/06/16 12:57:09;;;;;;;7.78;3.95;;;;;;;;;;4991973;28;20026;-76
2023/06/16 12:59:34;;;;;;;6.70;3.63;;;;;;;;;;4993172;28;20429;-77
2023/06/16 13:02:00;;;;;;;5.45;4.05;;;;;;;;;;4992752;28;20026;-75
2023/06/16 13:04:26;;;;;;;5.10;3.47;;;;;;;;;;4996318;28;20038;-75
2023/06/16 13:06:52;;;;;;;10.60;3.67;;;;;;;;;;4992341;28;20452;-73
2023/06/16 13:09:20;;;;;;;7.55;3.38;;;;;;;;;;4986276;28;20042;-74
2023/06/16 13:11:57;;;;;;;5.90;3.15;;;;;;;;;;4991475;28;20556;-73
2023/06/16 13:14:24;;;;;;;4.03;2.80;;;;;;;;;;5008368;28;20450;-74
2023/06/16 13:16:49;;;;;;;3.10;2.30;;;;;;;;;;5009765;28;20237;-75
2023/06/16 13:19:18;;;;;;;4.57;2.55;;;;;;;;;;5010442;28;20132;-74
2023/06/16 13:21:44;;;;;;;6.43;2.28;;;;;;;;;;4988617;28;20046;-75
2023/06/16 13:24:10;;;;;;;5.95;2.75;;;;;;;;;;4989109;28;20432;-75
2023/06/16 13:26:39;;;;;;;6.95;3.08;;;;;;;;;;4987775;28;20065;-76
2023/06/16 13:29:06;;;;;;;5.10;2.40;;;;;;;;;;4988636;28;20061;-77
2023/06/16 13:31:31;;;;;;;3.33;2.60;;;;;;;;;;4986872;28;20129;-75
2023/06/16 13:33:58;;;;;;;7.22;2.40;;;;;;;;;;4990270;28;20564;-77
2023/06/16 13:36:24;;;;;;;9.70;2.83;;;;;;;;;;4989247;28;20026;-77
2023/06/16 13:38:53;;;;;;;3.83;2.70;;;;;;;;;;4990800;28;20031;-77
2023/06/16 13:41:20;;;;;;;4.85;2.65;;;;;;;;;;4989217;28;20041;-76
2023/06/16 13:43:49;;;;;;;6.65;2.58;;;;;;;;;;4991208;28;20768;-77
2023/06/16 13:46:16;;;;;;;4.50;2.58;;;;;;;;;;4990504;28;20042;-77
2023/06/16 13:48:43;;;;;;;5.00;2.50;;;;;;;;;;4990977;28;20114;-77
2023/06/16 13:51:09;;;;;;;4.05;2.22;;;;;;;;;;4989864;28;20483;-75
2023/06/16 13:53:35;;;;;;;3.90;2.35;;;;;;;;;;4990326;28;20038;-77
2023/06/16 13:56:01;;;;;;;4.70;2.58;;;;;;;;;;4990772;28;20407;-76
2023/06/16 13:58:27;;;;;;;4.97;2.58;;;;;;;;;;4990776;28;20460;-76
2023/06/16 14:00:53;;;;;;;6.18;2.83;;;;;;;;;;4990594;28;20170;-76
2023/06/16 14:03:19;;;;;;;4.82;2.55;;;;;;;;;;4989357;28;20069;-76
2023/06/16 14:05:44;;;;;;;3.92;2.13;;;;;;;;;;4989172;28;20073;-77
2023/06/16 14:08:11;;;;;;;3.97;2.50;;;;;;;;;;4988827;28;20466;-75
2023/06/16 14:10:37;;;;;;;3.95;2.50;;;;;;;;;;4988357;28;20137;-72
2023/06/16 14:13:02;;;;;;;4.05;2.50;;;;;;;;;;4987878;28;20447;-72
2023/06/16 14:15:30;;;;;;;3.33;2.58;;;;;;;;;;4988949;28;20120;-74
2023/06/16 14:17:58;;;;;;;5.13;2.80;;;;;;;;;;4987008;28;20063;-75
2023/06/16 14:20:23;;;;;;;5.78;3.70;;;;;;;;;;4987693;28;20066;-76
2023/06/16 14:22:52;;;;;;;4.35;3.03;;;;;;;;;;4989638;28;20034;-75
2023/06/16 14:25:18;;;;;;;4.97;3.05;;;;;;;;;;4990234;28;20022;-75
2023/06/16 14:27:48;;;;;;;3.88;2.90;;;;;;;;;;4988731;28;20018;-76
2023/06/16 14:30:14;;;;;;;5.25;2.80;;;;;;;;;;4989462;28;20046;-76
2023/06/16 14:32:41;;;;;;;4.13;3.10;;;;;;;;;;4968307;28;20022;-75
2023/06/16 14:35:08;;;;;;;7.03;3.63;;;;;;;;;;4969854;28;20298;-76
2023/06/16 14:37:36;;;;;;;6.75;3.33;;;;;;;;;;4973912;28;20074;-76
2023/06/16 14:40:04;;;;;;;3.88;2.95;;;;;;;;;;4989564;28;20038;-76
2023/06/16 14:42:30;;;;;;;4.45;2.63;;;;;;;;;;4988980;28;20054;-75
2023/06/16 14:44:56;;;;;;;5.38;3.10;;;;;;;;;;4987742;28;20046;-74
2023/06/16 14:47:22;;;;;;;4.45;2.80;;;;;;;;;;4988191;28;21083;-75